createdAt,value
2022-10-25T00:00:00.800Z,19.92
2022-10-25T00:05:05.203Z,19.99
2022-10-25T00:10:09.110Z,20.09
2022-10-25T00:15:15.658Z,20.10
2022-10-25T00:20:19.415Z,20.08
2022-10-25T00:25:22.434Z,20.12
2022-10-25T00:30:25.291Z,20.19
2022-10-25T00:35:28.091Z,20.04
2022-10-25T00:40:30.895Z,19.85
2022-10-25T00:45:34.057Z,19.77
2022-10-25T00:50:48.892Z,19.54
2022-10-25T00:55:57.939Z,19.63
2022-10-25T01:01:02.026Z,19.67
2022-10-25T01:06:07.762Z,19.57
2022-10-25T01:11:10.590Z,19.51
2022-10-25T01:16:34.437Z,19.53
2022-10-25T01:21:52.087Z,19.44
2022-10-25T01:27:19.984Z,19.47
2022-10-25T01:32:26.131Z,19.33
2022-10-25T01:37:35.108Z,19.50
2022-10-25T01:42:51.937Z,19.31
2022-10-25T01:48:14.607Z,19.49
2022-10-25T01:53:17.711Z,19.21
2022-10-25T01:58:50.638Z,19.42
2022-10-25T02:04:11.367Z,19.61
2022-10-25T02:09:36.996Z,19.63
2022-10-25T02:14:44.697Z,19.69
2022-10-25T02:19:53.332Z,19.76
2022-10-25T02:24:57.980Z,19.70
2022-10-25T02:30:02.316Z,19.73
2022-10-25T02:35:05.852Z,19.58
2022-10-25T02:40:10.322Z,19.58
2022-10-25T02:45:13.286Z,19.62
2022-10-25T02:50:16.291Z,19.57
2022-10-25T02:55:19.094Z,19.55
2022-10-25T03:00:21.995Z,19.60
2022-10-25T03:05:24.795Z,19.53
2022-10-25T03:10:28.063Z,19.53
2022-10-25T03:15:30.912Z,19.47
2022-10-25T03:20:33.735Z,19.37
2022-10-25T03:25:36.996Z,19.33
2022-10-25T03:30:42.273Z,19.20
2022-10-25T03:35:45.195Z,19.16
2022-10-25T03:40:48.302Z,19.14
2022-10-25T03:45:51.212Z,19.12
2022-10-25T03:50:54.827Z,19.05
2022-10-25T03:55:57.634Z,19.00
2022-10-25T04:01:00.498Z,19.00
2022-10-25T04:06:03.752Z,18.97
2022-10-25T04:11:06.547Z,19.04
2022-10-25T04:16:10.002Z,19.14
2022-10-25T04:21:12.766Z,19.09
2022-10-25T04:26:18.127Z,19.04
2022-10-25T04:31:22.038Z,18.75
2022-10-25T04:36:28.546Z,18.69
2022-10-25T04:41:31.546Z,18.64
2022-10-25T04:46:34.450Z,18.57
2022-10-25T04:51:37.253Z,18.48
2022-10-25T04:56:40.006Z,18.51
2022-10-25T05:01:42.959Z,18.48
2022-10-25T05:06:45.966Z,18.51
2022-10-25T05:11:48.873Z,18.46
2022-10-25T05:16:51.672Z,18.46
2022-10-25T05:21:55.192Z,18.52
2022-10-25T05:26:58.091Z,18.50
2022-10-25T05:32:01.000Z,18.44
2022-10-25T05:37:03.802Z,18.47
2022-10-25T05:42:06.606Z,18.55
2022-10-25T05:47:09.504Z,18.75
2022-10-25T05:52:13.721Z,18.97
2022-10-25T05:57:16.645Z,19.65
2022-10-25T06:02:19.648Z,20.57
2022-10-25T06:07:22.659Z,20.86
2022-10-25T06:12:25.681Z,19.26
2022-10-25T06:17:28.894Z,18.58
2022-10-25T06:22:31.822Z,19.96
2022-10-25T06:27:34.990Z,20.77
2022-10-25T06:32:38.432Z,20.66
2022-10-25T06:37:41.536Z,21.27
2022-10-25T06:42:44.806Z,21.50
2022-10-25T06:47:48.252Z,21.49
2022-10-25T06:52:51.046Z,20.43
2022-10-25T06:57:57.352Z,18.62
2022-10-25T07:03:00.683Z,19.33
2022-10-25T07:08:03.913Z,19.74
2022-10-25T07:13:06.879Z,19.91
2022-10-25T07:18:09.769Z,19.99
2022-10-25T07:23:13.183Z,20.13
2022-10-25T07:28:16.090Z,20.22
2022-10-25T07:33:20.191Z,20.39
2022-10-25T07:38:26.931Z,19.85
2022-10-25T07:43:30.844Z,20.60
2022-10-25T07:48:34.711Z,20.49
2022-10-25T07:53:37.977Z,19.87
2022-10-25T07:58:41.403Z,20.43
2022-10-25T08:03:44.302Z,18.80
2022-10-25T08:08:47.854Z,19.41
2022-10-25T08:13:51.131Z,20.60
2022-10-25T08:18:54.138Z,20.23
2022-10-25T08:23:56.943Z,19.44
2022-10-25T08:29:00.155Z,21.47
2022-10-25T08:34:03.922Z,22.81
2022-10-25T08:39:06.767Z,25.37
2022-10-25T08:44:16.645Z,26.59
2022-10-25T08:49:28.293Z,26.76
2022-10-25T08:54:38.120Z,26.57
2022-10-25T08:59:43.691Z,25.08
2022-10-25T09:04:46.494Z,22.55
2022-10-25T09:10:11.615Z,20.76
2022-10-25T09:15:40.390Z,19.55
2022-10-25T09:20:50.316Z,19.47
2022-10-25T09:25:56.473Z,20.75
2022-10-25T09:31:01.835Z,19.86
2022-10-25T09:36:05.777Z,18.81
2022-10-25T09:41:35.704Z,19.21
2022-10-25T09:47:04.310Z,21.09
2022-10-25T09:52:38.753Z,20.56
2022-10-25T09:57:42.838Z,21.13
2022-10-25T10:02:46.505Z,21.85
2022-10-25T10:07:51.423Z,21.17
2022-10-25T10:13:36.559Z,20.67
2022-10-25T10:18:40.380Z,21.81
2022-10-25T10:23:43.182Z,22.38
2022-10-25T10:28:49.472Z,22.37
2022-10-25T10:33:52.783Z,22.40
2022-10-25T10:39:13.746Z,21.63
2022-10-25T10:44:17.121Z,20.36
2022-10-25T10:49:21.602Z,19.47
2022-10-25T10:54:27.944Z,19.49
2022-10-25T10:59:36.725Z,20.64
2022-10-25T11:04:50.557Z,19.40
2022-10-25T11:09:53.456Z,19.30
2022-10-25T11:14:56.962Z,21.03
2022-10-25T11:20:22.197Z,21.80
2022-10-25T11:25:39.145Z,21.91
2022-10-25T11:31:04.881Z,21.72
2022-10-25T11:36:14.122Z,21.66
2022-10-25T11:41:44.445Z,22.58
2022-10-25T11:47:06.731Z,23.02
2022-10-25T11:52:44.978Z,22.29
2022-10-25T11:58:19.916Z,20.79
2022-10-25T12:03:47.013Z,19.59
2022-10-25T12:08:53.067Z,18.79
2022-10-25T12:14:00.478Z,19.82
2022-10-25T12:19:13.587Z,21.03
2022-10-25T12:24:26.970Z,20.66
2022-10-25T12:29:42.248Z,18.91
2022-10-25T12:34:52.850Z,19.14
2022-10-25T12:39:56.674Z,20.07
2022-10-25T12:45:38.808Z,18.82
2022-10-25T12:51:15.235Z,19.52
2022-10-25T12:56:55.001Z,20.78
2022-10-25T13:02:40.052Z,20.39
2022-10-25T13:07:43.774Z,18.46
2022-10-25T13:13:30.245Z,18.61
2022-10-25T13:18:45.163Z,20.19
2022-10-25T13:23:59.778Z,21.11
2022-10-25T13:29:36.975Z,21.41
2022-10-25T13:34:39.996Z,19.79
2022-10-25T13:39:45.661Z,19.35
2022-10-25T13:45:03.504Z,20.47
2022-10-25T13:50:14.114Z,20.96
2022-10-25T13:55:23.198Z,19.49
2022-10-25T14:00:28.437Z,19.71
2022-10-25T14:05:56.189Z,20.62
2022-10-25T14:11:07.897Z,21.57
2022-10-25T14:16:20.841Z,21.85
2022-10-25T14:21:26.152Z,21.39
2022-10-25T14:26:29.720Z,19.96
2022-10-25T14:31:32.624Z,20.87
2022-10-25T14:36:38.291Z,21.89
2022-10-25T14:41:41.191Z,20.09
2022-10-25T14:46:44.940Z,18.50
2022-10-25T14:51:50.383Z,19.34
2022-10-25T14:57:00.761Z,19.93
2022-10-25T15:02:15.234Z,20.09
2022-10-25T15:07:23.980Z,20.15
2022-10-25T15:12:31.181Z,20.19
2022-10-25T15:17:35.103Z,19.47
2022-10-25T15:22:38.015Z,17.77
2022-10-25T15:27:41.940Z,18.47
2022-10-25T15:32:45.095Z,19.16
2022-10-25T15:37:48.366Z,19.36
2022-10-25T15:42:51.271Z,19.50
2022-10-25T15:47:55.303Z,19.56
2022-10-25T15:52:58.465Z,19.55
2022-10-25T15:58:01.314Z,19.56
2022-10-25T16:03:05.001Z,19.58
2022-10-25T16:08:09.108Z,19.63
2022-10-25T16:13:25.692Z,19.61
2022-10-25T16:18:29.623Z,19.62
2022-10-25T16:23:32.628Z,19.58
2022-10-25T16:28:35.429Z,19.56
2022-10-25T16:33:39.075Z,19.53
2022-10-25T16:38:42.272Z,19.56
2022-10-25T16:43:48.443Z,19.30
2022-10-25T16:48:52.270Z,17.69
2022-10-25T16:53:55.176Z,17.87
2022-10-25T16:58:58.075Z,18.64
2022-10-25T17:04:01.615Z,19.02
2022-10-25T17:09:04.500Z,19.11
2022-10-25T17:14:09.905Z,19.11
2022-10-25T17:19:13.495Z,18.96
2022-10-25T17:24:17.015Z,18.73
2022-10-25T17:29:20.115Z,18.58
2022-10-25T17:34:23.769Z,18.37
2022-10-25T17:39:26.636Z,18.54
2022-10-25T17:44:29.537Z,18.54
2022-10-25T17:49:32.339Z,18.60
2022-10-25T17:54:35.351Z,18.65
2022-10-25T17:59:38.151Z,18.65
2022-10-25T18:04:53.654Z,18.71
2022-10-25T18:10:04.845Z,18.83
2022-10-25T18:15:08.641Z,18.83
2022-10-25T18:20:13.051Z,18.89
2022-10-25T18:25:16.223Z,18.76
2022-10-25T18:30:19.226Z,16.91
2022-10-25T18:35:22.232Z,16.64
2022-10-25T18:40:25.136Z,17.67
2022-10-25T18:45:28.043Z,18.00
2022-10-25T18:50:30.946Z,18.24
2022-10-25T18:55:33.951Z,18.28
2022-10-25T19:00:36.863Z,18.28
2022-10-25T19:05:40.353Z,18.26
2022-10-25T19:10:43.279Z,18.23
2022-10-25T19:15:47.518Z,18.20
2022-10-25T19:20:50.315Z,18.18
2022-10-25T19:25:53.305Z,18.21
2022-10-25T19:30:56.122Z,18.28
2022-10-25T19:36:06.606Z,18.28
2022-10-25T19:41:12.957Z,18.32
2022-10-25T19:46:16.245Z,18.39
2022-10-25T19:51:20.625Z,18.38
2022-10-25T19:56:24.187Z,18.22
2022-10-25T20:01:30.253Z,18.07
2022-10-25T20:06:34.891Z,17.95
2022-10-25T20:11:39.223Z,17.94
2022-10-25T20:16:42.340Z,17.99
2022-10-25T20:21:45.284Z,18.08
2022-10-25T20:26:49.892Z,18.01
2022-10-25T20:31:54.053Z,17.99
2022-10-25T20:36:57.026Z,17.83
2022-10-25T20:42:00.408Z,17.77
2022-10-25T20:47:03.547Z,17.72
2022-10-25T20:52:06.458Z,17.73
2022-10-25T20:57:10.181Z,17.84
2022-10-25T21:02:13.157Z,17.83
2022-10-25T21:07:16.186Z,17.83
2022-10-25T21:12:19.088Z,17.90
2022-10-25T21:17:21.892Z,17.98
2022-10-25T21:22:24.691Z,18.15
2022-10-25T21:27:27.493Z,18.27
2022-10-25T21:32:30.298Z,18.39
2022-10-25T21:37:33.200Z,18.39
2022-10-25T21:42:36.206Z,18.28
2022-10-25T21:47:39.109Z,18.26
2022-10-25T21:52:41.912Z,18.36
2022-10-25T21:57:44.820Z,18.42
2022-10-25T22:02:47.721Z,18.20
2022-10-25T22:07:50.888Z,18.27
2022-10-25T22:12:56.190Z,18.26
2022-10-25T22:17:59.093Z,18.22
2022-10-25T22:23:01.895Z,18.05
2022-10-25T22:28:04.804Z,18.04
2022-10-25T22:33:07.608Z,17.99
2022-10-25T22:38:10.403Z,18.07
2022-10-25T22:43:13.205Z,18.25
2022-10-25T22:48:16.315Z,18.32
2022-10-25T22:53:20.453Z,18.13
2022-10-25T22:58:24.154Z,18.05
2022-10-25T23:03:26.975Z,18.11
2022-10-25T23:08:30.594Z,17.97
2022-10-25T23:13:35.238Z,18.05
2022-10-25T23:18:38.860Z,18.02
2022-10-25T23:23:42.070Z,17.90
2022-10-25T23:28:44.872Z,17.93
2022-10-25T23:33:51.908Z,17.83
2022-10-25T23:38:56.121Z,17.69
2022-10-25T23:43:59.031Z,17.60
2022-10-25T23:49:02.537Z,17.72
2022-10-25T23:54:05.539Z,17.79
2022-10-25T23:59:08.545Z,17.76
